createdAt,value
2019-03-02T00:02:00.016Z,17.73
2019-03-02T00:04:32.612Z,17.53
2019-03-02T00:07:07.990Z,17.10
2019-03-02T00:09:43.857Z,17.47
2019-03-02T00:12:17.175Z,16.50
2019-03-02T00:14:54.134Z,16.57
2019-03-02T00:17:27.807Z,18.73
2019-03-02T00:20:01.651Z,16.30
2019-03-02T00:22:39.437Z,17.07
2019-03-02T00:25:17.288Z,18.25
2019-03-02T00:27:54.102Z,18.58
2019-03-02T00:30:30.953Z,16.93
2019-03-02T00:33:03.540Z,17.13
2019-03-02T00:35:39.797Z,17.60
2019-03-02T00:38:16.249Z,17.33
2019-03-02T00:40:49.055Z,18.73
2019-03-02T00:43:23.697Z,17.10
2019-03-02T00:46:00.168Z,17.03
2019-03-02T00:48:33.878Z,17.43
2019-03-02T00:51:07.872Z,18.03
2019-03-02T00:53:45.506Z,18.23
2019-03-02T00:56:18.401Z,19.17
2019-03-02T00:58:53.695Z,18.37
2019-03-02T01:01:28.737Z,21.17
2019-03-02T01:04:03.841Z,20.00
2019-03-02T01:06:37.328Z,19.17
2019-03-02T01:09:11.662Z,20.47
2019-03-02T01:11:48.766Z,21.67
2019-03-02T01:14:23.085Z,22.50
2019-03-02T01:16:55.930Z,20.37
2019-03-02T01:19:29.171Z,23.05
2019-03-02T01:22:03.191Z,21.50
2019-03-02T01:24:38.778Z,21.80
2019-03-02T01:27:12.414Z,24.33
2019-03-02T01:29:45.614Z,24.50
2019-03-02T01:32:18.162Z,26.73
2019-03-02T01:34:50.707Z,30.63
2019-03-02T01:37:27.106Z,28.13
2019-03-02T01:40:00.912Z,31.80
2019-03-02T01:42:37.339Z,30.77
2019-03-02T01:45:17.085Z,30.70
2019-03-02T01:47:51.216Z,31.80
2019-03-02T01:50:24.790Z,32.93
2019-03-02T01:52:59.054Z,34.33
2019-03-02T01:55:32.131Z,33.83
2019-03-02T01:58:05.287Z,36.72
2019-03-02T02:00:38.790Z,36.50
2019-03-02T02:03:12.047Z,33.67
2019-03-02T02:05:45.499Z,33.13
2019-03-02T02:08:18.950Z,32.20
2019-03-02T02:10:52.333Z,33.07
2019-03-02T02:13:24.861Z,33.13
2019-03-02T02:15:57.906Z,33.67
2019-03-02T02:18:30.371Z,36.28
2019-03-02T02:21:03.785Z,32.90
2019-03-02T02:23:38.772Z,32.53
2019-03-02T02:26:12.549Z,34.70
2019-03-02T02:28:45.080Z,35.87
2019-03-02T02:31:17.817Z,30.60
2019-03-02T02:33:51.440Z,32.57
2019-03-02T02:36:24.098Z,36.13
2019-03-02T02:38:57.847Z,32.73
2019-03-02T02:41:30.488Z,32.83
2019-03-02T02:44:02.959Z,33.13
2019-03-02T02:46:37.058Z,35.92
2019-03-02T02:49:11.641Z,34.70
2019-03-02T02:51:49.378Z,32.17
2019-03-02T02:54:24.613Z,35.30
2019-03-02T02:56:58.675Z,36.30
2019-03-02T02:59:33.954Z,32.90
2019-03-02T03:02:11.985Z,32.33
2019-03-02T03:04:45.245Z,33.70
2019-03-02T03:07:17.771Z,33.93
2019-03-02T03:09:58.144Z,35.07
2019-03-02T03:12:30.913Z,34.93
2019-03-02T03:15:05.469Z,39.42
2019-03-02T03:17:38.159Z,33.80
2019-03-02T03:20:11.976Z,35.13
2019-03-02T03:22:46.103Z,36.47
2019-03-02T03:25:22.310Z,36.33
2019-03-02T03:27:54.901Z,35.33
2019-03-02T03:30:35.270Z,37.67
2019-03-02T03:33:11.141Z,41.53
2019-03-02T03:35:44.553Z,37.70
2019-03-02T03:38:18.050Z,41.42
2019-03-02T03:40:51.137Z,37.10
2019-03-02T03:43:24.836Z,38.70
2019-03-02T03:45:57.371Z,41.83
2019-03-02T03:48:30.047Z,47.33
2019-03-02T03:51:03.940Z,44.20
2019-03-02T03:53:36.645Z,43.67
2019-03-02T03:56:10.016Z,45.20
2019-03-02T03:58:42.828Z,44.23
2019-03-02T04:01:17.769Z,46.43
2019-03-02T04:03:53.032Z,48.10
2019-03-02T04:06:28.008Z,50.67
2019-03-02T04:09:03.167Z,51.07
2019-03-02T04:11:42.112Z,51.47
2019-03-02T04:14:19.113Z,55.50
2019-03-02T04:17:00.124Z,56.60
2019-03-02T04:19:35.983Z,58.90
2019-03-02T04:22:12.085Z,59.07
2019-03-02T04:24:44.665Z,60.30
2019-03-02T04:27:18.349Z,57.23
2019-03-02T04:29:55.281Z,61.50
2019-03-02T04:32:29.062Z,62.08
2019-03-02T04:35:01.905Z,63.63
2019-03-02T04:37:35.607Z,55.93
2019-03-02T04:40:08.973Z,56.27
2019-03-02T04:42:41.514Z,57.47
2019-03-02T04:45:16.130Z,58.07
2019-03-02T04:47:48.674Z,59.73
2019-03-02T04:50:23.508Z,68.10
2019-03-02T04:53:00.492Z,59.37
2019-03-02T04:55:32.900Z,58.37
2019-03-02T04:58:08.669Z,60.93
2019-03-02T05:00:44.535Z,60.33
2019-03-02T05:03:18.506Z,61.80
2019-03-02T05:05:51.062Z,62.60
2019-03-02T05:08:24.701Z,65.40
2019-03-02T05:11:00.734Z,64.60
2019-03-02T05:13:36.511Z,62.40
2019-03-02T05:16:09.409Z,63.30
2019-03-02T05:18:42.244Z,64.00
2019-03-02T05:21:14.977Z,66.83
2019-03-02T05:23:47.433Z,61.97
2019-03-02T05:26:23.639Z,79.50
2019-03-02T05:28:57.557Z,69.63
2019-03-02T05:31:31.808Z,66.63
2019-03-02T05:34:05.950Z,69.00
2019-03-02T05:36:38.782Z,69.07
2019-03-02T05:39:13.905Z,73.67
2019-03-02T05:41:50.276Z,76.50
2019-03-02T05:44:23.025Z,77.12
2019-03-02T05:46:57.699Z,67.17
2019-03-02T05:49:34.439Z,66.73
2019-03-02T05:52:07.040Z,75.65
2019-03-02T05:54:41.591Z,76.75
2019-03-02T05:57:15.130Z,66.67
2019-03-02T05:59:47.785Z,64.53
2019-03-02T06:02:20.360Z,61.27
2019-03-02T06:04:53.720Z,52.73
2019-03-02T06:07:29.571Z,90.20
2019-03-02T06:10:02.238Z,52.70
2019-03-02T06:12:35.127Z,52.67
2019-03-02T06:15:08.725Z,55.30
2019-03-02T06:17:43.638Z,53.23
2019-03-02T06:20:16.390Z,53.20
2019-03-02T06:22:52.395Z,56.47
2019-03-02T06:25:27.931Z,57.17
2019-03-02T06:28:00.910Z,55.63
2019-03-02T06:30:33.402Z,55.67
2019-03-02T06:33:08.470Z,56.13
2019-03-02T06:35:42.314Z,59.53
2019-03-02T06:38:14.823Z,59.50
2019-03-02T06:40:47.382Z,61.50
2019-03-02T06:43:22.823Z,67.93
2019-03-02T06:45:55.770Z,69.90
2019-03-02T06:48:28.242Z,69.30
2019-03-02T06:51:02.339Z,60.57
2019-03-02T06:53:37.076Z,56.77
2019-03-02T06:56:11.693Z,58.57
2019-03-02T06:58:45.130Z,59.70
2019-03-02T07:01:20.882Z,57.53
2019-03-02T07:03:57.766Z,58.00
2019-03-02T07:06:30.593Z,58.90
2019-03-02T07:09:05.941Z,58.10
2019-03-02T07:11:43.032Z,56.47
2019-03-02T07:14:16.269Z,56.23
2019-03-02T07:16:52.109Z,60.08
2019-03-02T07:19:37.288Z,55.03
2019-03-02T07:22:13.517Z,54.50
2019-03-02T07:24:49.509Z,54.73
2019-03-02T07:27:26.354Z,53.13
2019-03-02T07:30:08.014Z,60.88
2019-03-02T07:32:41.460Z,55.30
2019-03-02T07:35:19.471Z,54.77
2019-03-02T07:37:53.576Z,54.77
2019-03-02T07:40:26.383Z,59.35
2019-03-02T07:42:59.965Z,50.43
2019-03-02T07:45:34.838Z,51.10
2019-03-02T07:48:09.233Z,48.20
2019-03-02T07:50:42.238Z,57.63
2019-03-02T07:53:14.713Z,53.80
2019-03-02T07:55:47.441Z,52.33
2019-03-02T07:58:20.871Z,44.70
2019-03-02T08:00:53.516Z,45.27
2019-03-02T08:03:26.080Z,43.33
2019-03-02T08:06:01.268Z,44.77
2019-03-02T08:08:34.538Z,44.73
2019-03-02T08:11:10.524Z,43.53
2019-03-02T08:13:46.037Z,48.47
2019-03-02T08:16:18.646Z,47.75
2019-03-02T08:18:51.663Z,41.97
2019-03-02T08:21:26.039Z,43.00
2019-03-02T08:23:58.634Z,40.90
2019-03-02T08:26:34.611Z,42.03
2019-03-02T08:29:07.243Z,40.47
2019-03-02T08:31:41.884Z,40.83
2019-03-02T08:34:20.046Z,41.23
2019-03-02T08:36:54.259Z,39.13
2019-03-02T08:39:28.001Z,37.30
2019-03-02T08:42:01.571Z,42.92
2019-03-02T08:44:36.207Z,38.20
2019-03-02T08:47:09.886Z,35.67
2019-03-02T08:49:53.267Z,36.30
2019-03-02T08:52:28.985Z,35.63
2019-03-02T08:55:02.518Z,40.28
2019-03-02T08:57:36.149Z,35.80
2019-03-02T09:00:17.459Z,33.57
2019-03-02T09:02:50.548Z,34.80
2019-03-02T09:05:42.985Z,34.90
2019-03-02T09:08:19.408Z,33.93
2019-03-02T09:10:52.460Z,33.30
2019-03-02T09:13:25.216Z,34.27
2019-03-02T09:16:01.335Z,31.73
2019-03-02T09:18:45.381Z,35.90
2019-03-02T09:21:19.996Z,32.07
2019-03-02T09:23:55.371Z,33.10
2019-03-02T09:26:29.923Z,32.17
2019-03-02T09:29:02.720Z,32.17
2019-03-02T09:31:39.818Z,33.17
2019-03-02T09:34:12.480Z,32.13
2019-03-02T09:36:45.028Z,30.63
2019-03-02T09:39:20.679Z,31.10
2019-03-02T09:41:53.441Z,31.73
2019-03-02T09:44:26.480Z,31.60
2019-03-02T09:46:59.018Z,34.33
2019-03-02T09:49:33.862Z,31.97
2019-03-02T09:52:10.114Z,30.73
2019-03-02T09:54:44.059Z,30.43
2019-03-02T09:57:16.778Z,31.50
2019-03-02T09:59:52.572Z,33.13
2019-03-02T10:02:26.599Z,29.03
2019-03-02T10:05:26.182Z,29.43
2019-03-02T10:07:59.647Z,29.73
2019-03-02T10:10:33.428Z,33.55
2019-03-02T10:13:08.274Z,29.17
2019-03-02T10:15:42.287Z,28.93
2019-03-02T10:18:17.262Z,27.37
2019-03-02T10:20:52.641Z,26.90
2019-03-02T10:23:26.599Z,32.30
2019-03-02T10:26:00.058Z,26.83
2019-03-02T10:28:35.072Z,26.80
2019-03-02T10:31:10.262Z,28.10
2019-03-02T10:33:44.352Z,30.35
2019-03-02T10:36:18.478Z,30.35
2019-03-02T10:41:16.686Z,29.75
2019-03-02T10:43:53.232Z,25.40
2019-03-02T10:46:27.028Z,25.77
2019-03-02T10:49:00.514Z,25.70
2019-03-02T10:51:37.595Z,24.17
2019-03-02T10:54:13.104Z,23.67
2019-03-02T10:56:46.007Z,23.10
2019-03-02T10:59:18.589Z,26.37
2019-03-02T11:01:51.125Z,23.90
2019-03-02T11:04:44.359Z,23.33
2019-03-02T11:07:44.832Z,24.93
2019-03-02T11:10:42.410Z,22.80
2019-03-02T11:13:34.650Z,23.87
2019-03-02T11:16:32.092Z,26.00
2019-03-02T11:19:14.610Z,22.97
2019-03-02T11:22:10.863Z,22.13
2019-03-02T11:24:59.623Z,22.87
2019-03-02T11:27:45.793Z,22.40
2019-03-02T11:30:45.687Z,22.27
2019-03-02T11:33:37.149Z,25.10
2019-03-02T11:36:15.182Z,21.60
2019-03-02T11:39:01.024Z,22.43
2019-03-02T11:41:54.502Z,20.93
2019-03-02T11:44:36.898Z,23.98
2019-03-02T11:47:19.312Z,23.75
2019-03-02T11:50:04.820Z,20.90
2019-03-02T11:52:50.372Z,19.60
2019-03-02T11:55:35.195Z,22.42
2019-03-02T11:58:20.077Z,20.20
2019-03-02T12:01:04.800Z,21.73
2019-03-02T12:03:59.465Z,21.00
2019-03-02T12:06:57.499Z,21.25
2019-03-02T12:09:49.517Z,20.30
2019-03-02T12:12:39.243Z,19.07
2019-03-02T12:15:21.419Z,19.40
2019-03-02T12:17:59.524Z,18.37
2019-03-02T12:20:51.526Z,20.88
2019-03-02T12:23:29.722Z,17.93
2019-03-02T12:26:16.782Z,19.53
2019-03-02T12:29:13.494Z,18.77
2019-03-02T12:32:07.585Z,21.37
2019-03-02T12:34:51.467Z,19.07
2019-03-02T12:37:41.990Z,18.13
2019-03-02T12:40:23.988Z,18.63
2019-03-02T12:43:11.316Z,18.13
2019-03-02T12:45:49.815Z,18.43
2019-03-02T12:48:36.823Z,18.00
2019-03-02T12:51:35.281Z,19.37
2019-03-02T12:54:24.825Z,18.43
2019-03-02T12:57:14.734Z,20.35
2019-03-02T13:00:07.649Z,18.77
2019-03-02T13:03:06.778Z,20.10
2019-03-02T13:05:57.503Z,18.10
2019-03-02T13:08:48.686Z,18.43
2019-03-02T13:11:41.313Z,16.87
2019-03-02T13:14:38.785Z,19.10
2019-03-02T13:17:37.212Z,17.07
2019-03-02T13:20:39.365Z,18.45
2019-03-02T13:23:22.084Z,16.63
2019-03-02T13:26:07.442Z,17.27
2019-03-02T13:29:04.878Z,16.90
2019-03-02T13:32:01.430Z,15.80
2019-03-02T13:34:39.808Z,15.43
2019-03-02T13:37:34.359Z,15.93
2019-03-02T13:40:33.444Z,16.70
2019-03-02T13:43:12.573Z,15.60
2019-03-02T13:46:05.003Z,14.53
2019-03-02T13:48:46.986Z,16.20
2019-03-02T13:51:41.274Z,16.00
2019-03-02T13:54:25.484Z,16.23
2019-03-02T13:57:14.415Z,15.03
2019-03-02T14:00:03.498Z,15.63
2019-03-02T14:02:47.184Z,16.03
2019-03-02T14:05:26.292Z,14.43
2019-03-02T14:08:10.890Z,14.90
2019-03-02T14:10:49.161Z,12.10
2019-03-02T14:13:45.623Z,10.47
2019-03-02T14:16:32.183Z,11.85
2019-03-02T14:19:19.555Z,10.17
2019-03-02T14:22:14.910Z,10.88
2019-03-02T14:25:22.769Z,11.10
2019-03-02T14:28:06.433Z,10.27
2019-03-02T14:30:46.530Z,11.43
2019-03-02T14:33:29.433Z,10.30
2019-03-02T14:36:08.360Z,10.20
2019-03-02T14:39:03.057Z,9.37
2019-03-02T14:41:55.671Z,9.97
2019-03-02T14:44:40.535Z,9.87
2019-03-02T14:47:18.981Z,10.55
2019-03-02T14:50:06.518Z,8.93
2019-03-02T14:52:49.805Z,9.43
2019-03-02T14:55:33.546Z,9.50
2019-03-02T14:58:24.252Z,9.80
2019-03-02T15:01:04.242Z,8.70
2019-03-02T15:04:01.802Z,8.10
2019-03-02T15:06:55.919Z,9.40
2019-03-02T15:09:35.683Z,9.23
2019-03-02T15:12:16.089Z,8.73
2019-03-02T15:15:05.450Z,7.87
2019-03-02T15:17:49.248Z,8.47
2019-03-02T15:20:38.744Z,9.17
2019-03-02T15:23:18.215Z,9.43
2019-03-02T15:26:06.422Z,9.23
2019-03-02T15:29:10.032Z,9.10
2019-03-02T15:32:20.270Z,10.88
2019-03-02T15:35:20.547Z,11.18
2019-03-02T15:38:05.116Z,11.00
2019-03-02T15:40:50.560Z,11.97
2019-03-02T15:43:35.885Z,11.82
2019-03-02T15:46:35.878Z,10.50
2019-03-02T15:49:43.762Z,15.45
2019-03-02T15:52:50.471Z,12.70
2019-03-02T15:55:44.977Z,12.00
2019-03-02T15:58:30.100Z,12.55
2019-03-02T16:01:10.670Z,14.13
2019-03-02T16:03:57.269Z,14.63
2019-03-02T16:06:39.820Z,13.10
2019-03-02T16:09:28.937Z,13.77
2019-03-02T16:12:30.611Z,13.60
2019-03-02T16:15:27.153Z,15.25
2019-03-02T16:18:08.068Z,14.37
2019-03-02T16:20:51.066Z,14.47
2019-03-02T16:23:36.507Z,16.45
2019-03-02T16:26:29.889Z,15.77
2019-03-02T16:29:19.186Z,14.87
2019-03-02T16:32:01.753Z,14.67
2019-03-02T16:34:40.499Z,15.27
2019-03-02T16:37:25.669Z,18.17
2019-03-02T16:40:10.462Z,19.13
2019-03-02T16:42:53.964Z,18.27
2019-03-02T16:45:54.016Z,18.20
2019-03-02T16:48:52.721Z,23.30
2019-03-02T16:51:41.685Z,23.30
2019-03-02T16:54:36.337Z,19.23
2019-03-02T16:57:15.750Z,23.40
2019-03-02T16:59:55.819Z,18.03
2019-03-02T17:02:51.444Z,19.48
2019-03-02T17:05:47.790Z,18.87
2019-03-02T17:08:38.252Z,17.93
2019-03-02T17:11:24.511Z,17.37
2019-03-02T17:14:05.349Z,17.80
2019-03-02T17:16:53.380Z,21.55
2019-03-02T17:19:36.697Z,18.57
2019-03-02T17:22:15.981Z,19.20
2019-03-02T17:25:11.698Z,19.77
2019-03-02T17:27:59.756Z,21.63
2019-03-02T17:30:49.232Z,22.60
2019-03-02T17:33:41.267Z,25.33
2019-03-02T17:36:38.314Z,22.97
2019-03-02T17:39:23.649Z,24.73
2019-03-02T17:42:20.382Z,26.52
2019-03-02T17:45:32.001Z,26.20
2019-03-02T17:48:27.792Z,24.37
2019-03-02T17:51:13.954Z,29.90
2019-03-02T17:53:59.795Z,27.20
2019-03-02T17:57:01.647Z,30.33
2019-03-02T17:59:54.308Z,25.17
2019-03-02T18:02:32.743Z,23.93
2019-03-02T18:05:19.745Z,23.03
2019-03-02T18:08:13.469Z,22.53
2019-03-02T18:11:02.700Z,27.92
2019-03-02T18:13:44.974Z,26.20
2019-03-02T18:16:41.368Z,27.90
2019-03-02T18:19:27.887Z,28.52
2019-03-02T18:22:06.471Z,28.50
2019-03-02T18:24:44.065Z,25.67
2019-03-02T18:27:17.490Z,26.80
2019-03-02T18:29:50.801Z,20.87
2019-03-02T18:32:23.641Z,20.87
2019-03-02T18:34:56.871Z,17.97
2019-03-02T18:37:33.813Z,17.93
2019-03-02T18:40:11.048Z,20.67
2019-03-02T18:42:44.139Z,18.60
2019-03-02T18:45:16.220Z,20.33
2019-03-02T18:47:49.554Z,21.10
2019-03-02T18:50:32.485Z,19.60
2019-03-02T18:53:08.267Z,20.07
2019-03-02T18:55:41.001Z,22.67
2019-03-02T18:58:14.171Z,19.87
2019-03-02T19:00:54.079Z,23.13
2019-03-02T19:03:30.711Z,24.83
2019-03-02T19:06:04.232Z,28.13
2019-03-02T19:08:37.932Z,24.97
2019-03-02T19:11:10.809Z,24.73
2019-03-02T19:13:46.626Z,24.87
2019-03-02T19:16:22.002Z,26.00
2019-03-02T19:18:56.848Z,24.93
2019-03-02T19:21:31.013Z,25.20
2019-03-02T19:24:07.727Z,24.53
2019-03-02T19:26:42.855Z,26.00
2019-03-02T19:29:15.769Z,24.93
2019-03-02T19:31:48.540Z,25.60
2019-03-02T19:34:22.545Z,25.60
2019-03-02T19:36:58.140Z,25.63
2019-03-02T19:39:33.630Z,27.57
2019-03-02T19:42:06.327Z,30.83
2019-03-02T19:44:41.640Z,26.33
2019-03-02T19:47:16.979Z,26.63
2019-03-02T19:49:52.863Z,26.27
2019-03-02T19:52:26.538Z,26.97
2019-03-02T19:55:00.401Z,28.03
2019-03-02T19:57:35.561Z,28.63
2019-03-02T20:00:16.627Z,28.77
2019-03-02T20:02:49.606Z,27.83
2019-03-02T20:05:24.344Z,26.93
2019-03-02T20:07:57.112Z,27.27
2019-03-02T20:10:31.854Z,26.73
2019-03-02T20:13:06.612Z,26.47
2019-03-02T20:15:39.546Z,25.67
2019-03-02T20:18:13.237Z,24.10
2019-03-02T20:20:46.625Z,23.90
2019-03-02T20:23:20.183Z,23.33
2019-03-02T20:25:54.778Z,22.40
2019-03-02T20:28:27.791Z,23.27
2019-03-02T20:31:00.483Z,20.75
2019-03-02T20:33:37.152Z,17.77
2019-03-02T20:36:11.288Z,20.13
2019-03-02T20:38:44.736Z,19.40
2019-03-02T20:41:18.108Z,18.90
2019-03-02T20:43:50.770Z,18.00
2019-03-02T20:46:25.551Z,19.60
2019-03-02T20:49:01.548Z,17.33
2019-03-02T20:51:38.413Z,18.87
2019-03-02T20:54:12.570Z,17.00
2019-03-02T20:56:45.765Z,16.13
2019-03-02T20:59:19.228Z,16.93
2019-03-02T21:01:58.391Z,16.17
2019-03-02T21:04:31.050Z,16.73
2019-03-02T21:07:03.944Z,16.20
2019-03-02T21:09:37.619Z,16.50
2019-03-02T21:12:15.654Z,15.77
2019-03-02T21:14:50.404Z,15.47
2019-03-02T21:17:23.512Z,14.07
2019-03-02T21:19:58.726Z,12.77
2019-03-02T21:22:34.760Z,11.87
2019-03-02T21:25:09.216Z,10.90
2019-03-02T21:27:43.190Z,11.13
2019-03-02T21:30:17.356Z,11.97
2019-03-02T21:32:53.666Z,12.50
2019-03-02T21:35:27.917Z,10.90
2019-03-02T21:38:00.582Z,11.57
2019-03-02T21:40:34.480Z,11.53
2019-03-02T21:43:07.742Z,11.27
2019-03-02T21:45:42.388Z,11.60
2019-03-02T21:48:15.579Z,10.97
2019-03-02T21:50:48.469Z,10.67
2019-03-02T21:53:23.250Z,10.60
2019-03-02T21:55:56.339Z,10.20
2019-03-02T21:58:29.565Z,10.23
2019-03-02T22:01:04.860Z,10.73
2019-03-02T22:03:41.380Z,11.15
2019-03-02T22:06:16.254Z,10.03
2019-03-02T22:08:52.838Z,10.27
2019-03-02T22:11:31.744Z,10.80
2019-03-02T22:14:04.702Z,10.07
2019-03-02T22:16:42.490Z,11.43
2019-03-02T22:19:17.827Z,11.13
2019-03-02T22:21:50.618Z,12.57
2019-03-02T22:24:27.922Z,12.60
2019-03-02T22:27:01.075Z,12.67
2019-03-02T22:29:36.567Z,14.27
2019-03-02T22:32:11.941Z,15.45
2019-03-02T22:34:47.011Z,15.40
2019-03-02T22:37:20.364Z,14.30
2019-03-02T22:39:55.028Z,13.73
2019-03-02T22:42:28.618Z,13.83
2019-03-02T22:45:04.653Z,13.83
2019-03-02T22:47:40.375Z,13.85
2019-03-02T22:50:19.200Z,12.23
2019-03-02T22:52:51.878Z,10.60
2019-03-02T22:55:24.458Z,11.10
2019-03-02T22:57:59.187Z,9.43
2019-03-02T23:01:46.835Z,10.13
2019-03-02T23:04:27.748Z,9.23
2019-03-02T23:07:00.375Z,8.33
2019-03-02T23:09:32.915Z,8.70
2019-03-02T23:12:06.863Z,8.17
2019-03-02T23:14:41.791Z,8.67
2019-03-02T23:17:15.508Z,7.50
2019-03-02T23:19:49.068Z,8.00
2019-03-02T23:22:25.426Z,7.27
2019-03-02T23:24:57.962Z,7.73
2019-03-02T23:27:32.035Z,7.03
2019-03-02T23:30:09.732Z,6.47
2019-03-02T23:32:44.747Z,7.30
2019-03-02T23:35:17.595Z,7.77
2019-03-02T23:37:50.122Z,6.83
2019-03-02T23:40:25.215Z,6.70
2019-03-02T23:42:59.794Z,7.85
2019-03-02T23:45:34.835Z,6.90
2019-03-02T23:48:08.468Z,7.32
2019-03-02T23:50:42.398Z,6.87
2019-03-02T23:53:16.558Z,5.67
2019-03-02T23:55:49.374Z,6.15
2019-03-02T23:58:22.114Z,5.23
